Time;durP1;ratioP1;P1;durP2;ratioP2;P2;SDS_P1;SDS_P2;PMS_P1;PMS_P2;Temp;Humidity;BMP_temperature;BMP_pressure;BME280_temperature;BME280_humidity;BME280_pressure;Samples;Min_cycle;Max_cycle;Signal;HPM_P1;HPM_P2
2024/04/15 00:04:44;;;;;;;10.85;3.78;;;;;;;10.14;100.00;100143.66;11160107;26;20000;-33
2024/04/15 00:09:45;;;;;;;9.82;3.80;;;;;;;10.08;100.00;100140.88;11162585;26;20000;-33
2024/04/15 00:14:47;;;;;;;11.43;3.88;;;;;;;10.09;100.00;100122.66;11158179;26;20480;-33
2024/04/15 00:19:48;;;;;;;8.48;4.05;;;;;;;10.02;100.00;100115.44;11160173;26;20006;-33
2024/04/15 00:24:49;;;;;;;11.15;4.30;;;;;;;9.95;100.00;100101.31;11135653;26;20469;-33
2024/04/15 00:29:50;;;;;;;14.43;4.38;;;;;;;9.80;100.00;100085.22;11154525;26;20106;-34
2024/04/15 00:34:51;;;;;;;9.48;4.38;;;;;;;9.70;100.00;100080.56;11164251;26;19996;-33
2024/04/15 00:39:54;;;;;;;13.63;4.68;;;;;;;9.75;100.00;100065.94;11156029;26;19996;-33
2024/04/15 00:44:56;;;;;;;13.10;4.90;;;;;;;9.66;100.00;100050.00;11162011;26;20007;-35
2024/04/15 00:49:57;;;;;;;9.90;4.65;;;;;;;9.71;100.00;100048.41;11164017;26;19995;-34
2024/04/15 00:54:58;;;;;;;11.20;5.13;;;;;;;9.40;100.00;100039.66;11122446;26;20015;-36
2024/04/15 00:59:59;;;;;;;10.32;4.60;;;;;;;9.51;100.00;100034.75;11163750;26;20425;-34
2024/04/15 01:05:00;;;;;;;11.55;4.82;;;;;;;9.41;100.00;100024.88;11126741;26;19996;-35
2024/04/15 01:10:01;;;;;;;14.00;5.55;;;;;;;9.47;100.00;100007.69;11157017;26;20007;-34
2024/04/15 01:15:03;;;;;;;13.18;5.53;;;;;;;9.42;100.00;100009.28;11133154;26;20340;-34
2024/04/15 01:20:04;;;;;;;10.63;5.70;;;;;;;9.48;100.00;99982.47;11156943;26;20456;-34
2024/04/15 01:25:05;;;;;;;12.90;5.95;;;;;;;9.45;100.00;99982.38;11155375;26;20076;-34
2024/04/15 01:30:09;;;;;;;12.82;5.80;;;;;;;9.44;100.00;99968.47;11162161;26;20326;-34
2024/04/15 01:35:10;;;;;;;12.65;5.63;;;;;;;9.49;100.00;99940.81;11156364;26;20011;-34
2024/04/15 01:40:11;;;;;;;12.68;6.10;;;;;;;9.50;100.00;99942.56;11160074;26;20003;-35
2024/04/15 01:45:12;;;;;;;14.77;6.13;;;;;;;9.33;100.00;99941.19;11154393;26;20015;-34
2024/04/15 01:50:15;;;;;;;15.40;6.35;;;;;;;9.30;100.00;99942.00;11164575;26;20019;-34
2024/04/15 01:55:16;;;;;;;12.00;5.68;;;;;;;9.25;100.00;99921.81;11164365;26;20054;-33
2024/04/15 02:00:17;;;;;;;14.38;7.18;;;;;;;9.22;100.00;99921.72;11155958;26;20000;-32
2024/04/15 02:05:18;;;;;;;13.27;6.00;;;;;;;9.20;100.00;99913.00;11123807;26;19995;-33
2024/04/15 02:10:19;;;;;;;11.82;5.65;;;;;;;9.25;100.00;99895.75;11146344;26;20011;-36
2024/04/15 02:15:20;;;;;;;14.98;5.68;;;;;;;9.39;100.00;99897.06;11159186;26;20441;-34
2024/04/15 02:20:22;;;;;;;13.40;5.82;;;;;;;9.43;100.00;99893.69;11163371;26;19996;-33
2024/04/15 02:25:24;;;;;;;12.48;5.35;;;;;;;9.35;100.00;99886.47;11122022;26;20007;-33
2024/04/15 02:30:25;;;;;;;11.20;5.63;;;;;;;9.31;100.00;99875.06;11168515;26;20340;-33
2024/04/15 02:35:26;;;;;;;13.48;5.93;;;;;;;9.25;100.00;99867.06;11161222;26;20015;-33
2024/04/15 02:40:27;;;;;;;12.27;5.72;;;;;;;9.18;100.00;99867.72;11161764;26;20006;-35
2024/04/15 02:45:28;;;;;;;13.02;5.72;;;;;;;9.18;100.00;99863.41;11132425;26;20333;-33
2024/04/15 02:50:30;;;;;;;12.00;6.10;;;;;;;9.21;100.00;99867.81;11162159;26;20010;-33
2024/04/15 02:55:31;;;;;;;12.02;6.35;;;;;;;8.95;100.00;99864.47;11160915;26;19996;-33
2024/04/15 03:00:32;;;;;;;14.48;6.70;;;;;;;9.13;100.00;99854.56;11159369;26;19992;-33
2024/04/15 03:05:39;;;;;;;15.05;7.30;;;;;;;9.24;100.00;99860.09;11161537;26;20006;-33
2024/04/15 03:10:41;;;;;;;15.90;7.25;;;;;;;9.23;100.00;99854.00;11133310;26;20012;-33
2024/04/15 03:15:42;;;;;;;14.23;7.82;;;;;;;9.01;100.00;99849.88;11160685;26;19999;-33
2024/04/15 03:20:43;;;;;;;13.82;8.25;;;;;;;8.73;100.00;99849.91;11167305;26;20000;-33
2024/04/15 03:25:44;;;;;;;15.40;8.15;;;;;;;8.95;100.00;99834.06;11162584;26;20000;-33
2024/04/15 03:30:45;;;;;;;13.18;8.45;;;;;;;9.01;100.00;99829.03;11158818;26;20049;-33
2024/04/15 03:35:46;;;;;;;16.38;8.60;;;;;;;9.01;100.00;99818.59;11148103;26;20008;-33
2024/04/15 03:40:47;;;;;;;17.10;8.45;;;;;;;9.17;100.00;99824.28;11167396;26;20003;-33
2024/04/15 03:45:49;;;;;;;17.63;9.30;;;;;;;8.69;100.00;99812.44;11165712;26;20010;-33
2024/04/15 03:50:50;;;;;;;20.35;9.18;;;;;;;8.66;100.00;99804.53;11151415;26;21782;-33
2024/04/15 03:55:52;;;;;;;16.83;9.55;;;;;;;8.72;100.00;99790.78;11170499;26;20354;-33
2024/04/15 04:00:59;;;;;;;18.40;9.85;;;;;;;8.63;100.00;99796.63;11153471;26;20492;-35
2024/04/15 04:06:01;;;;;;;19.60;9.93;;;;;;;8.78;100.00;99788.38;11132724;26;19999;-33
2024/04/15 04:11:06;;;;;;;20.00;10.57;;;;;;;8.77;100.00;99789.22;11157892;26;19992;-35
2024/04/15 04:16:12;;;;;;;26.25;12.65;;;;;;;8.67;100.00;99788.06;11158098;26;20032;-32
2024/04/15 04:21:13;;;;;;;25.83;13.50;;;;;;;8.66;100.00;99783.69;11163286;26;19999;-33
2024/04/15 04:26:14;;;;;;;24.45;13.57;;;;;;;8.69;100.00;99775.06;11159092;26;20003;-32
2024/04/15 04:31:16;;;;;;;25.25;13.77;;;;;;;8.71;100.00;99766.47;11129816;26;20050;-32
2024/04/15 04:36:18;;;;;;;26.48;14.20;;;;;;;8.79;100.00;99751.94;11161242;26;20445;-32
2024/04/15 04:41:19;;;;;;;27.77;14.20;;;;;;;8.73;100.00;99758.72;11158671;26;20003;-32
2024/04/15 04:46:20;;;;;;;25.00;14.77;;;;;;;8.73;100.00;99753.50;11161159;26;20011;-32
2024/04/15 04:51:21;;;;;;;27.55;15.55;;;;;;;8.87;100.00;99749.56;11160142;26;19999;-32
2024/04/15 04:56:22;;;;;;;29.35;16.55;;;;;;;8.91;100.00;99741.00;11155726;26;20000;-32
2024/04/15 05:01:23;;;;;;;26.25;16.05;;;;;;;8.80;100.00;99737.19;11160849;26;20469;-32
2024/04/15 05:06:25;;;;;;;33.65;16.77;;;;;;;8.59;100.00;99737.44;11159493;26;19999;-32
2024/04/15 05:11:26;;;;;;;31.80;16.60;;;;;;;8.40;100.00;99732.53;11159133;26;20016;-31
2024/04/15 05:16:27;;;;;;;32.20;17.60;;;;;;;8.32;100.00;99725.34;11158003;26;19995;-32
2024/04/15 05:21:29;;;;;;;32.50;16.95;;;;;;;8.25;100.00;99712.13;11158916;26;20011;-32
2024/04/15 05:26:30;;;;;;;32.63;16.70;;;;;;;8.14;100.00;99722.19;11159135;26;20042;-32
2024/04/15 05:31:31;;;;;;;34.75;16.98;;;;;;;8.25;100.00;99720.81;11157867;26;20010;-31
2024/04/15 05:36:32;;;;;;;32.08;17.48;;;;;;;8.13;100.00;99707.41;11127665;26;20007;-32
2024/04/15 05:41:33;;;;;;;32.15;17.00;;;;;;;8.12;100.00;99698.72;11157953;26;20449;-32
2024/04/15 05:46:36;;;;;;;38.45;16.85;;;;;;;8.21;100.00;99694.63;11158159;26;20350;-32
2024/04/15 05:51:37;;;;;;;30.55;16.50;;;;;;;8.20;100.00;99683.31;11159580;26;20010;-32
2024/04/15 05:56:38;;;;;;;31.25;15.27;;;;;;;8.05;100.00;99675.03;11157606;26;20007;-32
2024/04/15 06:01:39;;;;;;;28.52;14.20;;;;;;;8.09;100.00;99663.91;11127052;26;20000;-32
2024/04/15 06:06:41;;;;;;;23.83;13.68;;;;;;;8.04;100.00;99657.69;11151694;26;20019;-33
2024/04/15 06:11:42;;;;;;;27.83;12.85;;;;;;;8.03;100.00;99645.50;11157558;26;19999;-33
2024/04/15 06:16:43;;;;;;;24.77;12.15;;;;;;;8.24;100.00;99653.94;11157439;26;20022;-32
2024/04/15 06:21:44;;;;;;;19.77;10.20;;;;;;;8.47;100.00;99644.25;11156983;26;20004;-32
2024/04/15 06:26:46;;;;;;;22.50;10.40;;;;;;;8.27;100.00;99640.13;11148190;26;20000;-32
2024/04/15 06:31:48;;;;;;;22.05;9.80;;;;;;;8.19;100.00;99639.03;11127930;26;20419;-32
2024/04/15 06:36:49;;;;;;;20.30;9.38;;;;;;;8.08;100.00;99629.19;11149787;26;19999;-32
2024/04/15 06:41:50;;;;;;;23.45;9.50;;;;;;;8.08;100.00;99610.97;11152504;26;20004;-32
2024/04/15 06:46:54;;;;;;;20.90;10.23;;;;;;;8.20;100.00;99604.34;11153386;26;20007;-32
2024/04/15 06:51:55;;;;;;;19.80;10.77;;;;;;;8.27;100.00;99601.97;11153208;26;20000;-32
2024/04/15 06:56:56;;;;;;;26.00;11.77;;;;;;;8.30;100.00;99609.84;11155419;26;20023;-32
2024/04/15 07:01:58;;;;;;;25.38;11.38;;;;;;;8.30;100.00;99602.03;11152425;26;19996;-31
2024/04/15 07:06:59;;;;;;;23.25;10.95;;;;;;;8.28;100.00;99585.53;11159945;26;20006;-32
2024/04/15 07:12:00;;;;;;;25.77;11.05;;;;;;;8.68;100.00;99588.34;11152249;26;20000;-32
2024/04/15 07:17:01;;;;;;;24.88;10.48;;;;;;;8.53;100.00;99583.59;11152774;26;20329;-32
2024/04/15 07:22:02;;;;;;;21.05;10.43;;;;;;;8.60;100.00;99564.72;11162455;26;19995;-31
2024/04/15 07:27:04;;;;;;;20.00;10.23;;;;;;;8.54;100.00;99554.16;11158043;26;19996;-32
2024/04/15 07:32:05;;;;;;;20.33;9.07;;;;;;;8.74;100.00;99554.66;11159945;26;19992;-32
2024/04/15 07:37:07;;;;;;;22.33;10.07;;;;;;;8.98;100.00;99542.25;11160083;26;20000;-32
2024/04/15 07:42:09;;;;;;;23.02;9.45;;;;;;;8.81;100.00;99538.31;11164011;26;20333;-31
2024/04/15 07:47:10;;;;;;;25.60;9.82;;;;;;;8.68;100.00;99537.13;11163282;26;20452;-32
2024/04/15 07:52:11;;;;;;;22.13;10.40;;;;;;;8.95;100.00;99536.09;11161167;26;20285;-32
2024/04/15 07:57:15;;;;;;;24.65;10.05;;;;;;;8.89;100.00;99520.31;11156672;26;20036;-33
2024/04/15 08:02:16;;;;;;;26.48;10.93;;;;;;;8.84;100.00;99528.88;11152984;26;20000;-33
2024/04/15 08:07:17;;;;;;;28.75;13.18;;;;;;;8.95;100.00;99523.94;11163057;26;20010;-32
2024/04/15 08:12:19;;;;;;;27.23;12.65;;;;;;;9.06;100.00;99522.44;11160639;26;20011;-32
2024/04/15 08:17:20;;;;;;;27.90;12.60;;;;;;;9.13;100.00;99509.56;11161141;26;19999;-32
2024/04/15 08:22:22;;;;;;;29.70;12.10;;;;;;;8.92;100.00;99495.19;11159872;26;19995;-32
2024/04/15 08:27:24;;;;;;;22.10;11.77;;;;;;;9.12;100.00;99485.22;11162427;26;19999;-32
2024/04/15 08:32:25;;;;;;;25.00;12.48;;;;;;;9.46;100.00;99480.78;11154461;26;20035;-32
2024/04/15 08:37:26;;;;;;;24.52;11.80;;;;;;;9.49;100.00;99473.91;11159926;26;20000;-32
2024/04/15 08:42:56;;;;;;;25.05;12.30;;;;;;;9.97;100.00;99474.88;11159180;26;20000;-32
2024/04/15 08:47:58;;;;;;;23.55;10.07;;;;;;;9.63;100.00;99468.97;11122728;26;20000;-32
2024/04/15 08:52:59;;;;;;;19.17;9.55;;;;;;;9.74;100.00;99445.72;11132446;26;20461;-32
2024/04/15 08:58:00;;;;;;;16.27;8.90;;;;;;;9.83;100.00;99445.91;11158057;26;20004;-32
2024/04/15 09:03:01;;;;;;;22.67;9.25;;;;;;;10.03;100.00;99422.78;11125815;26;20011;-32
2024/04/15 09:08:03;;;;;;;19.85;8.07;;;;;;;10.05;100.00;99415.84;11132117;26;20012;-32
2024/04/15 09:13:04;;;;;;;20.15;8.13;;;;;;;10.12;100.00;99401.22;11152639;26;19996;-32
2024/04/15 09:18:06;;;;;;;16.92;6.70;;;;;;;9.97;100.00;99396.56;11158398;26;20326;-33
2024/04/15 09:23:10;;;;;;;14.48;6.80;;;;;;;10.06;100.00;99380.22;11102461;26;19995;-32
2024/04/15 09:28:11;;;;;;;19.10;7.20;;;;;;;9.97;100.00;99373.97;11161772;26;20456;-33
2024/04/15 09:33:13;;;;;;;16.02;5.90;;;;;;;10.31;100.00;99364.13;11159954;26;20492;-32
2024/04/15 09:38:14;;;;;;;11.23;5.53;;;;;;;10.45;100.00;99351.28;11121377;26;20425;-32
2024/04/15 09:43:15;;;;;;;12.18;5.07;;;;;;;10.41;100.00;99355.59;11125472;26;20003;-32
2024/04/15 09:48:22;;;;;;;12.57;4.95;;;;;;;10.69;100.00;99348.19;11125794;26;20018;-32
2024/04/15 09:53:41;;;;;;;11.52;4.20;;;;;;;10.16;100.00;99312.50;11098050;26;20000;-32
2024/04/15 09:58:45;;;;;;;9.13;3.50;;;;;;;10.09;100.00;99309.78;11156101;26;20335;-32
2024/04/15 10:03:52;;;;;;;14.05;4.00;;;;;;;10.35;100.00;99299.78;11128319;26;20011;-32
2024/04/15 10:08:53;;;;;;;11.93;3.60;;;;;;;10.56;100.00;99275.69;11125114;26;20044;-32
2024/04/15 10:13:54;;;;;;;9.63;3.40;;;;;;;10.66;100.00;99274.97;11159344;26;20003;-32
2024/04/15 10:18:59;;;;;;;8.48;3.38;;;;;;;10.47;100.00;99263.38;11124034;26;20373;-33
2024/04/15 10:24:02;;;;;;;6.22;2.42;;;;;;;10.60;100.00;99247.03;11121208;26;20326;-32
2024/04/15 10:29:28;;;;;;;6.55;2.60;;;;;;;10.64;93.37;99240.09;11128219;26;20069;-31
2024/04/15 10:34:29;;;;;;;6.80;2.58;;;;;;;10.73;92.67;99234.13;11155488;26;20000;-31
2024/04/15 10:39:30;;;;;;;7.30;2.80;;;;;;;10.58;93.35;99224.34;11157146;26;20082;-32
2024/04/15 10:44:31;;;;;;;6.05;2.78;;;;;;;10.77;91.11;99202.81;11156375;26;20012;-32
2024/04/15 10:49:32;;;;;;;7.57;2.42;;;;;;;10.98;88.45;99204.81;11156186;26;20067;-32
2024/04/15 10:54:34;;;;;;;8.80;2.50;;;;;;;10.78;91.25;99170.56;11157492;26;19996;-32
2024/04/15 10:59:35;;;;;;;6.82;2.25;;;;;;;10.76;87.07;99158.38;11162632;26;20333;-32
2024/04/15 11:04:36;;;;;;;6.35;2.10;;;;;;;10.95;89.84;99149.00;11131996;26;19996;-32
2024/04/15 11:09:37;;;;;;;9.23;2.13;;;;;;;11.18;85.75;99118.72;11131666;26;20073;-32
2024/04/15 11:14:38;;;;;;;6.40;2.15;;;;;;;10.59;85.38;99126.81;11162130;26;19995;-32
2024/04/15 11:19:39;;;;;;;9.95;2.05;;;;;;;10.56;82.12;99127.66;11162456;26;20024;-32
2024/04/15 11:24:40;;;;;;;5.22;1.98;;;;;;;11.01;80.65;99104.63;11162037;26;20337;-32
2024/04/15 11:29:42;;;;;;;5.65;2.22;;;;;;;10.93;78.44;99097.56;11125246;26;19999;-33
2024/04/15 11:34:43;;;;;;;9.18;2.70;;;;;;;10.70;79.92;99086.00;11131150;26;20011;-32
2024/04/15 11:39:44;;;;;;;7.10;3.08;;;;;;;11.18;86.58;99063.78;11159644;26;20008;-32
2024/04/15 11:44:46;;;;;;;6.75;3.17;;;;;;;11.72;82.46;99033.66;11132659;26;20011;-32
2024/04/15 11:49:47;;;;;;;10.38;3.50;;;;;;;11.85;82.68;99026.75;11128916;26;20461;-33
2024/04/15 11:54:48;;;;;;;10.30;3.67;;;;;;;11.84;83.84;99009.28;11159877;26;20006;-32
2024/04/15 11:59:49;;;;;;;9.73;3.50;;;;;;;11.73;76.26;98997.88;11166542;26;19993;-33
2024/04/15 12:04:52;;;;;;;9.63;4.20;;;;;;;11.58;78.61;98981.25;11158108;26;20455;-32
2024/04/15 12:09:54;;;;;;;9.10;3.40;;;;;;;11.71;77.09;98970.84;11128369;26;20083;-33
2024/04/15 12:14:55;;;;;;;10.68;3.63;;;;;;;11.85;75.58;98945.59;11159453;26;20016;-33
2024/04/15 12:19:56;;;;;;;6.75;3.47;;;;;;;12.03;75.05;98934.34;11162435;26;20004;-32
2024/04/15 12:24:58;;;;;;;8.20;3.80;;;;;;;12.11;77.52;98895.06;11164664;26;20000;-32
2024/04/15 12:29:59;;;;;;;9.00;3.65;;;;;;;12.25;75.42;98885.50;11158357;26;19992;-32
2024/04/15 12:35:00;;;;;;;11.55;3.60;;;;;;;12.29;81.29;98874.13;11158035;26;19993;-32
2024/04/15 12:40:05;;;;;;;10.85;3.55;;;;;;;12.40;79.36;98868.88;11164422;26;21847;-32
2024/04/15 12:45:06;;;;;;;9.32;3.08;;;;;;;12.24;78.41;98857.53;11119359;26;20000;-32
2024/04/15 12:50:09;;;;;;;7.68;2.90;;;;;;;11.96;78.32;98854.03;11165363;26;20001;-31
2024/04/15 12:55:10;;;;;;;9.02;3.13;;;;;;;11.94;79.23;98832.19;11164431;26;20007;-32
2024/04/15 13:00:11;;;;;;;7.28;2.53;;;;;;;12.32;77.12;98819.13;11158120;26;20434;-31
2024/04/15 13:05:13;;;;;;;8.18;2.55;;;;;;;12.04;71.60;98810.38;11155855;26;20000;-31
2024/04/15 13:10:14;;;;;;;7.70;2.22;;;;;;;11.85;68.59;98802.50;11164024;26;20015;-32
2024/04/15 13:15:15;;;;;;;10.32;2.30;;;;;;;11.70;68.09;98783.25;11157714;26;20000;-32
2024/04/15 13:20:17;;;;;;;8.13;2.50;;;;;;;11.93;69.82;98759.78;11158152;26;20018;-31
2024/04/15 13:25:18;;;;;;;8.02;1.90;;;;;;;11.99;65.84;98741.44;11148702;26;20011;-32
2024/04/15 13:30:19;;;;;;;7.07;2.30;;;;;;;11.91;69.46;98732.72;11158352;26;20337;-32
2024/04/15 13:35:21;;;;;;;6.80;1.95;;;;;;;11.72;72.22;98711.72;11127659;26;19995;-32
2024/04/15 13:40:22;;;;;;;9.02;2.10;;;;;;;11.41;79.53;98700.34;11156880;26;20480;-31
2024/04/15 13:45:23;;;;;;;5.82;1.90;;;;;;;11.00;87.81;98722.03;11156409;26;19995;-32
2024/04/15 13:50:24;;;;;;;9.23;2.08;;;;;;;10.55;96.66;98697.47;11160161;26;20506;-32
2024/04/15 13:55:25;;;;;;;8.07;1.77;;;;;;;10.63;92.38;98684.47;11155209;26;20337;-32
2024/04/15 14:00:26;;;;;;;5.47;1.73;;;;;;;10.75;94.76;98687.13;11158260;26;20002;-32
2024/04/15 14:05:27;;;;;;;8.38;1.92;;;;;;;10.51;98.77;98685.28;11158867;26;20006;-32
2024/04/15 14:10:28;;;;;;;7.20;2.20;;;;;;;10.27;100.00;98669.47;11127114;26;20337;-32
2024/04/15 14:15:30;;;;;;;6.85;1.85;;;;;;;10.21;100.00;98638.94;11158116;26;20061;-32
2024/04/15 14:20:31;;;;;;;9.82;2.28;;;;;;;10.39;100.00;98614.69;11132930;26;20335;-33
2024/04/15 14:25:32;;;;;;;6.53;2.10;;;;;;;10.54;100.00;98593.00;11154867;26;20343;-33
2024/04/15 14:30:33;;;;;;;7.13;2.10;;;;;;;10.54;100.00;98579.94;11096221;26;20011;-32
2024/04/15 14:35:34;;;;;;;8.25;2.10;;;;;;;10.61;100.00;98574.72;11164849;26;20011;-33
2024/04/15 14:40:36;;;;;;;5.63;1.90;;;;;;;10.61;100.00;98546.00;11163830;26;20001;-32
2024/04/15 14:45:37;;;;;;;6.10;1.95;;;;;;;10.62;100.00;98524.22;11163103;26;20014;-32
2024/04/15 14:50:38;;;;;;;5.28;1.90;;;;;;;10.62;100.00;98505.06;11166759;26;19996;-31
2024/04/15 14:55:40;;;;;;;4.40;1.80;;;;;;;10.61;100.00;98500.72;11165991;26;20004;-32
2024/04/15 15:00:41;;;;;;;7.07;2.30;;;;;;;10.66;100.00;98472.88;11138865;26;20339;-31
2024/04/15 15:05:42;;;;;;;9.52;2.00;;;;;;;10.68;99.48;98458.91;11164673;26;20493;-32
2024/04/15 15:10:43;;;;;;;5.85;2.20;;;;;;;10.62;100.00;98481.53;11161236;26;20337;-35
2024/04/15 15:15:44;;;;;;;3.22;1.85;;;;;;;9.87;100.00;98500.47;11165141;26;20331;-32
2024/04/15 15:20:46;;;;;;;6.50;1.80;;;;;;;9.47;100.00;98488.97;11159737;26;20001;-31
2024/04/15 15:25:47;;;;;;;4.63;2.08;;;;;;;9.13;100.00;98485.25;11162968;26;20454;-32
2024/04/15 15:30:48;;;;;;;2.65;1.50;;;;;;;8.66;100.00;98486.63;11163904;26;20412;-32
2024/04/15 15:35:51;;;;;;;6.55;1.48;;;;;;;8.35;100.00;98634.66;11161991;26;20011;-32
2024/04/15 15:40:52;;;;;;;1.63;0.90;;;;;;;6.97;100.00;98647.25;11159089;26;20001;-31
2024/04/15 15:45:54;;;;;;;2.20;1.10;;;;;;;6.43;100.00;98635.84;11161526;26;20102;-32
2024/04/15 15:50:55;;;;;;;1.90;0.90;;;;;;;6.10;100.00;98661.97;11159084;26;20069;-32
2024/04/15 15:55:56;;;;;;;2.25;0.80;;;;;;;5.63;100.00;98666.91;11166428;26;19999;-32
2024/04/15 16:00:58;;;;;;;2.20;0.90;;;;;;;5.31;100.00;98628.16;11128175;26;20424;-32
2024/04/15 16:05:59;;;;;;;2.90;1.00;;;;;;;5.13;100.00;98663.94;11156415;26;19992;-31
2024/04/15 16:11:00;;;;;;;1.25;0.70;;;;;;;4.71;100.00;98699.94;11165116;26;20034;-32
2024/04/15 16:16:02;;;;;;;37.00;17.95;;;;;;;4.82;100.00;98698.50;11161257;26;20008;-31
2024/04/15 16:21:03;;;;;;;1.77;0.80;;;;;;;4.54;100.00;98708.09;11126261;26;20004;-32
2024/04/15 16:26:04;;;;;;;1.35;0.75;;;;;;;4.76;100.00;98686.28;11166563;26;20004;-32
2024/04/15 16:31:05;;;;;;;1.50;0.90;;;;;;;4.76;100.00;98682.81;11158693;26;20020;-31
2024/04/15 16:36:07;;;;;;;2.85;1.25;;;;;;;4.85;100.00;98660.66;11161789;26;20000;-31
2024/04/15 16:41:09;;;;;;;3.20;1.80;;;;;;;5.07;100.00;98637.88;11114691;26;20044;-31
2024/04/15 16:46:10;;;;;;;3.00;2.08;;;;;;;5.07;100.00;98690.59;11173653;26;20022;-32
2024/04/15 16:51:11;;;;;;;3.72;2.40;;;;;;;5.06;100.00;98699.16;11159969;26;20442;-31
2024/04/15 16:56:12;;;;;;;5.75;3.80;;;;;;;4.80;100.00;98710.53;11153344;26;20000;-32
2024/04/15 17:01:13;;;;;;;9.13;5.82;;;;;;;4.71;100.00;98716.31;11162692;26;19996;-32
2024/04/15 17:06:14;;;;;;;9.98;6.28;;;;;;;4.87;100.00;98709.84;11161075;26;20027;-32
2024/04/15 17:11:16;;;;;;;13.57;7.85;;;;;;;4.99;100.00;98706.75;11157165;26;20074;-32
2024/04/15 17:16:17;;;;;;;11.88;8.05;;;;;;;5.00;100.00;98692.94;11158072;26;19991;-32
2024/04/15 17:21:18;;;;;;;12.30;7.80;;;;;;;5.00;100.00;98704.19;11128868;26;20009;-31
2024/04/15 17:26:19;;;;;;;14.88;8.23;;;;;;;5.21;100.00;98703.00;11152523;26;20449;-31
2024/04/15 17:31:20;;;;;;;13.52;8.98;;;;;;;4.98;100.00;98703.28;11162335;26;19999;-31
2024/04/15 17:36:22;;;;;;;16.38;8.75;;;;;;;4.92;100.00;98702.25;11159577;26;19995;-31
2024/04/15 17:41:23;;;;;;;15.35;9.00;;;;;;;5.17;100.00;98720.19;11126661;26;20334;-32
2024/04/15 17:46:24;;;;;;;14.85;9.45;;;;;;;5.07;100.00;98721.66;11149055;26;20374;-32
2024/04/15 17:51:27;;;;;;;15.50;9.60;;;;;;;5.00;100.00;98736.97;11099977;26;20004;-32
2024/04/15 17:56:28;;;;;;;17.17;9.90;;;;;;;4.98;100.00;98724.00;11160745;26;20031;-32
2024/04/15 18:01:29;;;;;;;18.70;9.95;;;;;;;4.85;100.00;98727.94;11129611;26;20003;-31
2024/04/15 18:06:30;;;;;;;17.77;10.10;;;;;;;4.92;100.00;98720.34;11159575;26;20008;-31
2024/04/15 18:11:32;;;;;;;23.15;10.60;;;;;;;4.91;100.00;98727.22;11159326;26;19999;-31
2024/04/15 18:16:33;;;;;;;18.70;10.38;;;;;;;4.91;100.00;98747.94;11125361;26;19996;-31
2024/04/15 18:21:34;;;;;;;22.05;10.57;;;;;;;5.01;100.00;98749.06;11158789;26;20461;-31
2024/04/15 18:26:36;;;;;;;22.90;11.60;;;;;;;5.18;100.00;98768.53;11158473;26;19999;-32
2024/04/15 18:31:37;;;;;;;8.70;4.10;;;;;;;4.07;100.00;98768.72;11158886;26;20000;-31
2024/04/15 18:36:39;;;;;;;7.88;4.38;;;;;;;4.09;100.00;98741.19;11142606;26;20445;-32
2024/04/15 18:41:40;;;;;;;11.95;5.57;;;;;;;4.69;100.00;98706.75;11125615;26;20012;-32
2024/04/15 18:46:41;;;;;;;10.85;5.97;;;;;;;4.55;100.00;98777.09;11135654;26;20014;-31
2024/04/15 18:51:43;;;;;;;12.73;6.38;;;;;;;3.48;100.00;98795.22;11126365;26;21900;-31
2024/04/15 18:56:44;;;;;;;9.98;5.00;;;;;;;3.11;100.00;98779.25;11128614;26;20019;-31
2024/04/15 19:01:45;;;;;;;14.18;5.80;;;;;;;3.43;100.00;98785.56;11101036;26;20053;-31
2024/04/15 19:06:46;;;;;;;9.68;4.75;;;;;;;3.55;100.00;98757.56;11151571;26;20019;-32
2024/04/15 19:11:47;;;;;;;14.00;6.10;;;;;;;3.62;100.00;98763.84;11129920;26;20032;-32
2024/04/15 19:16:48;;;;;;;18.17;8.93;;;;;;;3.84;100.00;98755.94;11159366;26;20015;-31
2024/04/15 19:21:50;;;;;;;23.85;11.30;;;;;;;4.13;100.00;98763.75;11161858;26;20013;-31
2024/04/15 19:26:51;;;;;;;22.30;11.68;;;;;;;4.32;100.00;98785.88;11143016;26;20000;-31
2024/04/15 19:31:52;;;;;;;20.70;10.68;;;;;;;4.35;100.00;98781.69;11121664;26;20022;-31
2024/04/15 19:36:53;;;;;;;18.92;9.52;;;;;;;4.49;100.00;98796.75;11151591;26;20004;-32
2024/04/15 19:41:55;;;;;;;22.30;8.55;;;;;;;4.46;100.00;98805.28;11117350;26;20309;-32
2024/04/15 19:46:56;;;;;;;12.45;5.70;;;;;;;4.32;100.00;98815.22;11067906;26;20011;-31
2024/04/15 19:51:57;;;;;;;13.52;5.50;;;;;;;4.16;100.00;98824.19;11148026;26;19996;-31
2024/04/15 19:56:59;;;;;;;10.77;5.20;;;;;;;4.26;100.00;98812.41;11153635;26;20337;-32
2024/04/15 20:02:00;;;;;;;8.68;4.13;;;;;;;4.32;100.00;98820.38;11117677;26;20012;-32
2024/04/15 20:07:01;;;;;;;8.88;4.35;;;;;;;4.36;100.00;98819.63;11148877;26;20000;-32
2024/04/15 20:12:02;;;;;;;12.30;4.38;;;;;;;4.26;100.00;98811.56;11144346;26;20457;-32
2024/04/15 20:17:19;;;;;;;12.07;4.35;;;;;;;4.14;100.00;98812.91;11159815;26;20010;-32
2024/04/15 20:22:20;;;;;;;9.93;4.40;;;;;;;4.02;100.00;98820.25;11154169;26;20039;-32
2024/04/15 20:27:22;;;;;;;8.57;4.10;;;;;;;4.04;100.00;98820.31;11097470;26;19999;-32
2024/04/15 20:32:23;;;;;;;7.80;3.67;;;;;;;4.05;100.00;98829.81;11101371;26;20016;-32
2024/04/15 20:37:24;;;;;;;7.30;3.70;;;;;;;4.03;100.00;98821.13;11100456;26;20021;-32
2024/04/15 20:42:26;;;;;;;9.70;3.78;;;;;;;4.05;100.00;98832.41;11115550;26;20010;-31
2024/04/15 20:47:27;;;;;;;9.35;4.00;;;;;;;3.97;100.00;98818.38;11146271;26;20419;-32
2024/04/15 20:52:28;;;;;;;10.98;4.88;;;;;;;4.03;100.00;98810.78;11141304;26;20019;-32
2024/04/15 20:57:29;;;;;;;11.55;5.63;;;;;;;4.08;100.00;98807.53;11147831;26;20014;-32
2024/04/15 21:02:30;;;;;;;14.98;6.53;;;;;;;4.02;100.00;98801.28;11152398;26;20348;-32
2024/04/15 21:07:31;;;;;;;13.50;6.50;;;;;;;4.13;100.00;98797.34;11161654;26;20019;-32
2024/04/15 21:12:33;;;;;;;12.15;6.13;;;;;;;4.12;100.00;98798.16;11155943;26;20011;-32
2024/04/15 21:17:34;;;;;;;16.17;6.05;;;;;;;4.17;100.00;98796.63;11162203;26;20344;-32
2024/04/15 21:22:36;;;;;;;11.60;4.93;;;;;;;4.15;100.00;98799.16;11161668;26;20004;-32
2024/04/15 21:27:37;;;;;;;10.85;5.40;;;;;;;4.32;100.00;98796.22;11151494;26;20032;-32
2024/04/15 21:32:38;;;;;;;9.85;4.50;;;;;;;4.30;100.00;98801.34;11155649;26;19995;-32
2024/04/15 21:37:39;;;;;;;8.35;4.10;;;;;;;4.32;100.00;98794.50;11165441;26;20006;-32
2024/04/15 21:42:40;;;;;;;6.90;3.83;;;;;;;4.33;100.00;98805.72;11158261;26;19995;-32
2024/04/15 21:47:42;;;;;;;6.78;4.00;;;;;;;4.43;100.00;98790.53;11130021;26;20002;-32
2024/04/15 21:52:43;;;;;;;9.60;6.00;;;;;;;4.34;100.00;98794.53;11160408;26;20031;-32
2024/04/15 21:57:44;;;;;;;12.48;5.88;;;;;;;4.28;100.00;98803.03;11159398;26;20019;-32
2024/04/15 22:02:45;;;;;;;7.53;5.00;;;;;;;4.12;100.00;98813.69;11162432;26;20353;-32
2024/04/15 22:07:49;;;;;;;8.50;5.50;;;;;;;4.04;100.00;98810.00;11158959;26;19996;-32
2024/04/15 22:12:50;;;;;;;10.20;6.20;;;;;;;3.93;100.00;98810.53;11151607;26;20031;-31
2024/04/15 22:17:51;;;;;;;10.93;6.07;;;;;;;3.79;100.00;98808.31;11159626;26;20015;-32
2024/04/15 22:22:53;;;;;;;11.70;6.43;;;;;;;3.78;100.00;98791.06;11157287;26;20008;-32
2024/04/15 22:27:54;;;;;;;13.38;6.72;;;;;;;3.85;100.00;98799.03;11163801;26;20004;-31
2024/04/15 22:32:55;;;;;;;13.15;6.68;;;;;;;3.85;100.00;98803.34;11153138;26;20039;-32
2024/04/15 22:37:56;;;;;;;10.45;6.30;;;;;;;3.79;100.00;98798.84;11159698;26;19996;-32
2024/04/15 22:42:57;;;;;;;12.18;6.85;;;;;;;3.78;100.00;98791.06;11156841;26;20321;-32
2024/04/15 22:47:59;;;;;;;12.73;7.50;;;;;;;3.79;100.00;98797.97;11155457;26;19996;-32
2024/04/15 22:53:00;;;;;;;12.73;7.38;;;;;;;3.89;100.00;98818.97;11168758;26;20003;-32
2024/04/15 22:58:01;;;;;;;14.02;7.80;;;;;;;3.89;100.00;98821.56;11157354;26;20019;-32
2024/04/15 23:03:02;;;;;;;14.75;7.78;;;;;;;4.00;100.00;98809.00;11163356;26;20000;-32
2024/04/15 23:08:03;;;;;;;14.38;7.35;;;;;;;3.94;100.00;98817.44;11136349;26;20003;-32